Terminal Aerodrome Forecast
Issued by NWS

Home | Current Version | Previous Version | Text Only | Print | Product List | Glossary On
Versions: 1 2 3 4 5 6 7 8 9 10 11 12 13 14 15 16 17 18 19 20 21 22 23 24 25 26 27 28 29 30 31
000
FTUS41 KBOX 031730
TAFBED
TAF
KBED 031730Z 0318/0418 24008KT P6SM SCT150
     FM032100 18006KT P6SM BKN090
     FM040000 18009KT 1SM -SN OVC040
     FM040500 19009KT 6SM -FZRAPL OVC008
     FM040600 20009KT 6SM -RAPL OVC008
     FM040800 22009KT P6SM OVC008
     FM041100 24010KT P6SM OVC130=

USA.gov is the U.S. government's official web portal to all federal, state and local government web resources and services.